6OH5 weather

Connor Heliport
Powell, Ohio, United States

Public forecast

Using degrees Fahrenheit for public forecast. Weather courtesy of forecast.io.

METAR (pilot weather report)

Closest report is The Ohio State University Airport - Don Scott Field, 5.0 nm (9.3 km) S. Retrieved 2019/05/24 17:53 UTC (28 minutes ago):

KOSU 241753Z 06004KT 10SM SCT075 BKN090 23/13 A3014 RMK AO2 RAE09 SLP202 P0000 60000 T02280133 10239 20172 55009

TAF (pilot weather forecast)

Closest forecast is John Glenn Columbus International Airport, 12.4 nm (22.9 km) SE. Retrieved 2019/05/24 18:42 UTC (0 seconds ago):

TAF KCMH 241741Z 2418/2518 VRB03KT P6SM SCT060 SCT100 BKN250 FM250100 14003KT P6SM SCT050 FM251200 20005KT P6SM SCT060 FM251500 23010G18KT P6SM SCT040 FM251700 24014G24KT P6SM SCT040